createdAt,value
2023-02-14T00:02:24.336Z,58.73
2023-02-14T00:04:50.671Z,58.79
2023-02-14T00:07:16.997Z,59.73
2023-02-14T00:09:43.271Z,57.52
2023-02-14T00:12:09.557Z,57.33
2023-02-14T00:14:35.830Z,57.84
2023-02-14T00:17:02.096Z,57.87
2023-02-14T00:19:28.380Z,57.97
2023-02-14T00:21:54.649Z,57.92
2023-02-14T00:24:20.906Z,59.19
2023-02-14T00:26:47.191Z,58.82
2023-02-14T00:29:13.475Z,57.24
2023-02-14T00:31:39.872Z,58.65
2023-02-14T00:34:06.282Z,58.97
2023-02-14T00:36:32.582Z,59.59
2023-02-14T00:38:58.868Z,57.99
2023-02-14T00:41:25.246Z,58.20
2023-02-14T00:43:51.536Z,55.41
2023-02-14T00:46:17.805Z,55.06
2023-02-14T00:48:44.092Z,54.76
2023-02-14T00:51:10.357Z,55.40
2023-02-14T00:53:36.605Z,55.72
2023-02-14T00:56:02.881Z,54.86
2023-02-14T00:58:29.152Z,54.91
2023-02-14T01:00:55.508Z,55.67
2023-02-14T01:03:21.780Z,56.62
2023-02-14T01:05:48.051Z,56.46
2023-02-14T01:08:14.315Z,55.85
2023-02-14T01:10:40.582Z,56.41
2023-02-14T01:13:06.852Z,54.83
2023-02-14T01:15:33.145Z,56.33
2023-02-14T01:17:59.431Z,54.63
2023-02-14T01:20:25.726Z,54.11
2023-02-14T01:22:52.026Z,55.33
2023-02-14T01:25:18.286Z,56.55
2023-02-14T01:27:44.561Z,56.27
2023-02-14T01:30:10.847Z,55.31
2023-02-14T01:32:37.121Z,55.19
2023-02-14T01:35:03.453Z,52.97
2023-02-14T01:37:29.720Z,52.34
2023-02-14T01:39:56.019Z,51.46
2023-02-14T01:42:22.299Z,51.80
2023-02-14T01:44:48.557Z,52.30
2023-02-14T01:47:14.891Z,52.69
2023-02-14T01:49:41.181Z,52.69
2023-02-14T01:52:07.566Z,52.74
2023-02-14T01:54:33.842Z,52.57
2023-02-14T01:57:00.164Z,54.38
2023-02-14T01:59:26.468Z,54.54
2023-02-14T02:01:52.759Z,54.44
2023-02-14T02:04:19.059Z,53.88
2023-02-14T02:06:45.322Z,52.74
2023-02-14T02:09:11.586Z,51.68
2023-02-14T02:11:37.859Z,52.41
2023-02-14T02:14:04.117Z,51.76
2023-02-14T02:16:30.399Z,52.48
2023-02-14T02:18:56.690Z,51.42
2023-02-14T02:21:22.976Z,50.20
2023-02-14T02:23:49.231Z,51.33
2023-02-14T02:26:15.513Z,50.99
2023-02-14T02:28:41.783Z,50.20
2023-02-14T02:31:08.153Z,50.43
2023-02-14T02:33:34.505Z,49.42
2023-02-14T02:36:00.747Z,49.80
2023-02-14T02:38:26.997Z,49.72
2023-02-14T02:40:53.281Z,48.80
2023-02-14T02:43:19.534Z,49.29
2023-02-14T02:45:45.852Z,49.03
2023-02-14T02:48:12.117Z,48.28
2023-02-14T02:50:38.426Z,50.68
2023-02-14T02:53:04.695Z,49.75
2023-02-14T02:55:30.959Z,49.32
2023-02-14T02:57:57.228Z,48.84
2023-02-14T03:00:23.522Z,50.01
2023-02-14T03:02:49.802Z,49.85
2023-02-14T03:05:16.134Z,51.75
2023-02-14T03:07:42.443Z,51.11
2023-02-14T03:10:08.711Z,50.35
2023-02-14T03:12:35.074Z,48.98
2023-02-14T03:15:01.315Z,48.29
2023-02-14T03:17:27.579Z,50.49
2023-02-14T03:19:53.860Z,51.45
2023-02-14T03:22:20.156Z,50.36
2023-02-14T03:24:46.439Z,48.74
2023-02-14T03:27:12.825Z,51.25
2023-02-14T03:29:39.104Z,50.27
2023-02-14T03:32:05.517Z,48.31
2023-02-14T03:34:31.886Z,49.09
2023-02-14T03:36:58.142Z,49.46
2023-02-14T03:39:24.418Z,49.54
2023-02-14T03:41:50.687Z,50.47
2023-02-14T03:44:17.010Z,51.11
2023-02-14T03:46:43.335Z,49.72
2023-02-14T03:49:09.672Z,49.69
2023-02-14T03:51:35.944Z,52.49
2023-02-14T03:54:02.227Z,50.34
2023-02-14T03:56:28.505Z,52.96
2023-02-14T03:58:54.766Z,50.75
2023-02-14T04:01:21.081Z,51.34
2023-02-14T04:03:47.443Z,51.73
2023-02-14T04:06:13.801Z,50.57
2023-02-14T04:08:40.066Z,50.35
2023-02-14T04:11:06.337Z,50.09
2023-02-14T04:13:32.622Z,48.94
2023-02-14T04:15:58.959Z,49.13
2023-02-14T04:18:25.249Z,49.69
2023-02-14T04:20:51.495Z,48.72
2023-02-14T04:23:17.770Z,48.65
2023-02-14T04:25:44.017Z,47.11
2023-02-14T04:28:10.307Z,46.52
2023-02-14T04:30:36.580Z,45.64
2023-02-14T04:33:02.851Z,45.88
2023-02-14T04:35:29.129Z,46.39
2023-02-14T04:37:55.391Z,46.30
2023-02-14T04:40:21.647Z,47.32
2023-02-14T04:42:47.933Z,46.25
2023-02-14T04:45:14.210Z,47.75
2023-02-14T04:47:40.489Z,47.63
2023-02-14T04:50:06.762Z,48.56
2023-02-14T04:52:33.018Z,50.10
2023-02-14T04:54:59.282Z,49.95
2023-02-14T04:57:25.546Z,49.44
2023-02-14T04:59:51.801Z,51.62
2023-02-14T05:02:18.096Z,53.51
2023-02-14T05:04:44.465Z,53.00
2023-02-14T05:07:10.733Z,53.17
2023-02-14T05:09:37.011Z,51.59
2023-02-14T05:12:03.277Z,51.18
2023-02-14T05:14:29.651Z,49.98
2023-02-14T05:16:55.920Z,51.81
2023-02-14T05:19:22.180Z,50.98
2023-02-14T05:21:48.453Z,50.12
2023-02-14T05:24:14.712Z,49.79
2023-02-14T05:26:41.033Z,49.83
2023-02-14T05:29:07.322Z,49.17
2023-02-14T05:31:33.694Z,49.55
2023-02-14T05:33:59.998Z,49.47
2023-02-14T05:36:26.319Z,49.00
2023-02-14T05:38:52.577Z,47.29
2023-02-14T05:41:18.856Z,46.48
2023-02-14T05:43:45.124Z,47.84
2023-02-14T05:46:11.429Z,47.28
2023-02-14T05:48:37.725Z,46.35
2023-02-14T05:51:04.011Z,46.14
2023-02-14T05:53:30.282Z,46.07
2023-02-14T05:55:56.550Z,46.46
2023-02-14T05:58:22.824Z,46.92
2023-02-14T06:00:49.097Z,49.41
2023-02-14T06:03:15.387Z,49.58
2023-02-14T06:05:41.642Z,50.68
2023-02-14T06:08:07.906Z,50.73
2023-02-14T06:10:34.175Z,50.44
2023-02-14T06:13:00.449Z,48.74
2023-02-14T06:15:26.735Z,48.45
2023-02-14T06:17:52.997Z,49.00
2023-02-14T06:20:19.270Z,49.81
2023-02-14T06:22:45.544Z,48.41
2023-02-14T06:25:11.818Z,48.24
2023-02-14T06:27:38.092Z,46.73
2023-02-14T06:30:04.405Z,45.87
2023-02-14T06:32:30.707Z,44.97
2023-02-14T06:34:56.966Z,44.85
2023-02-14T06:37:23.238Z,44.69
2023-02-14T06:39:49.511Z,46.53
2023-02-14T06:42:15.779Z,46.21
2023-02-14T06:44:42.058Z,46.14
2023-02-14T06:47:08.306Z,44.63
2023-02-14T06:49:34.609Z,46.92
2023-02-14T06:52:00.881Z,47.41
2023-02-14T06:54:27.139Z,48.63
2023-02-14T06:56:53.410Z,47.80
2023-02-14T06:59:19.676Z,49.20
2023-02-14T07:01:46.038Z,48.66
2023-02-14T07:04:12.315Z,49.62
2023-02-14T07:06:38.574Z,49.07
2023-02-14T07:09:04.827Z,47.82
2023-02-14T07:11:31.110Z,47.73
2023-02-14T07:13:57.390Z,47.65
2023-02-14T07:16:23.649Z,50.76
2023-02-14T07:18:49.914Z,50.95
2023-02-14T07:21:16.218Z,51.44
2023-02-14T07:23:42.500Z,53.60
2023-02-14T07:26:08.770Z,56.74
2023-02-14T07:28:35.061Z,56.77
2023-02-14T07:31:01.828Z,59.58
2023-02-14T07:33:28.325Z,59.61
2023-02-14T07:35:54.608Z,62.42
2023-02-14T07:38:20.875Z,62.12
2023-02-14T07:40:47.170Z,62.03
2023-02-14T07:43:13.440Z,58.67
2023-02-14T07:45:39.710Z,58.66
2023-02-14T07:48:06.054Z,56.62
2023-02-14T07:50:32.355Z,54.72
2023-02-14T07:52:58.642Z,53.95
2023-02-14T07:55:24.906Z,53.24
2023-02-14T07:57:51.180Z,53.74
2023-02-14T08:00:17.457Z,54.09
2023-02-14T08:02:43.734Z,53.39
2023-02-14T08:05:10.078Z,52.99
2023-02-14T08:07:36.407Z,53.86
2023-02-14T08:10:02.696Z,52.61
2023-02-14T08:12:28.947Z,51.68
2023-02-14T08:14:55.238Z,50.75
2023-02-14T08:17:21.670Z,48.95
2023-02-14T08:19:47.933Z,50.85
2023-02-14T08:22:14.199Z,51.79
2023-02-14T08:24:40.465Z,50.89
2023-02-14T08:27:06.752Z,50.04
2023-02-14T08:29:33.034Z,49.08
2023-02-14T08:31:59.463Z,50.33
2023-02-14T08:34:25.821Z,51.48
2023-02-14T08:36:52.074Z,51.70
2023-02-14T08:39:18.370Z,53.61
2023-02-14T08:41:44.664Z,55.10
2023-02-14T08:44:11.017Z,58.53
2023-02-14T08:46:37.385Z,64.94
2023-02-14T08:49:03.691Z,67.87
2023-02-14T08:51:29.954Z,71.18
2023-02-14T08:53:56.289Z,72.69
2023-02-14T08:56:22.583Z,76.81
2023-02-14T08:58:48.889Z,78.58
2023-02-14T09:01:15.192Z,80.00
2023-02-14T09:03:41.638Z,81.06
2023-02-14T09:06:07.950Z,77.66
2023-02-14T09:08:34.246Z,77.67
2023-02-14T09:11:00.832Z,74.77
2023-02-14T09:13:27.288Z,74.60
2023-02-14T09:15:53.561Z,76.37
2023-02-14T09:18:19.861Z,75.87
2023-02-14T09:20:46.153Z,74.18
2023-02-14T09:23:12.480Z,73.39
2023-02-14T09:25:38.739Z,71.88
2023-02-14T09:28:05.010Z,74.41
2023-02-14T09:30:31.415Z,75.19
2023-02-14T09:32:57.682Z,75.05
2023-02-14T09:35:24.173Z,77.97
2023-02-14T09:37:50.501Z,76.99
2023-02-14T09:40:16.783Z,75.33
2023-02-14T09:42:43.066Z,75.33
2023-02-14T09:45:09.363Z,74.56
2023-02-14T09:47:35.670Z,74.78
2023-02-14T09:50:02.050Z,71.69
2023-02-14T09:52:28.386Z,72.18
2023-02-14T09:54:54.692Z,70.57
2023-02-14T09:57:20.967Z,70.68
2023-02-14T09:59:47.235Z,70.26
2023-02-14T10:02:14.565Z,68.21
2023-02-14T10:04:40.869Z,68.95
2023-02-14T10:07:07.374Z,68.82
2023-02-14T10:09:33.653Z,67.88
2023-02-14T10:11:59.925Z,69.65
2023-02-14T10:14:26.265Z,67.41
2023-02-14T10:16:52.619Z,66.45
2023-02-14T10:19:18.932Z,69.63
2023-02-14T10:21:47.110Z,71.27
2023-02-14T10:24:14.219Z,70.19
2023-02-14T10:26:40.465Z,70.07
2023-02-14T10:29:06.771Z,70.22
2023-02-14T10:31:33.202Z,70.22
2023-02-14T10:33:59.518Z,69.94
2023-02-14T10:36:25.778Z,72.41
2023-02-14T10:38:52.074Z,72.97
2023-02-14T10:41:18.349Z,76.57
2023-02-14T10:43:44.631Z,81.62
2023-02-14T10:46:10.980Z,79.83
2023-02-14T10:48:37.319Z,78.78
2023-02-14T10:51:03.604Z,80.75
2023-02-14T10:53:29.930Z,80.26
2023-02-14T10:55:56.201Z,75.24
2023-02-14T10:58:22.483Z,74.45
2023-02-14T11:00:48.801Z,72.78
2023-02-14T11:03:15.231Z,70.44
2023-02-14T11:05:41.582Z,65.98
2023-02-14T11:08:07.863Z,67.44
2023-02-14T11:10:34.214Z,67.60
2023-02-14T11:13:00.545Z,68.84
2023-02-14T11:15:26.846Z,59.33
2023-02-14T11:17:53.156Z,54.35
2023-02-14T11:20:19.550Z,52.71
2023-02-14T11:22:45.876Z,54.67
2023-02-14T11:25:12.175Z,55.20
2023-02-14T11:27:38.446Z,51.33
2023-02-14T11:30:04.748Z,52.85
2023-02-14T11:32:31.053Z,52.91
2023-02-14T11:34:57.324Z,52.49
2023-02-14T11:37:23.590Z,52.11
2023-02-14T11:39:49.853Z,53.71
2023-02-14T11:42:16.125Z,52.06
2023-02-14T11:44:42.406Z,53.54
2023-02-14T11:47:08.769Z,52.98
2023-02-14T11:49:35.026Z,55.75
2023-02-14T11:52:01.297Z,55.97
2023-02-14T11:54:27.568Z,53.49
2023-02-14T11:56:53.861Z,51.91
2023-02-14T11:59:20.154Z,55.89
2023-02-14T12:01:46.459Z,57.90
2023-02-14T12:04:12.747Z,59.14
2023-02-14T12:06:39.017Z,59.70
2023-02-14T12:09:05.270Z,60.57
2023-02-14T12:11:31.517Z,61.61
2023-02-14T12:13:57.789Z,58.19
2023-02-14T12:16:24.078Z,59.61
2023-02-14T12:18:50.362Z,60.31
2023-02-14T12:21:16.622Z,56.64
2023-02-14T12:23:42.905Z,58.07
2023-02-14T12:26:09.171Z,60.27
2023-02-14T12:28:35.496Z,56.39
2023-02-14T12:31:02.126Z,56.72
2023-02-14T12:33:28.606Z,56.94
2023-02-14T12:35:54.869Z,59.04
2023-02-14T12:38:21.157Z,59.04
2023-02-14T12:40:47.411Z,62.49
2023-02-14T12:43:13.706Z,61.51
2023-02-14T12:45:39.977Z,57.86
2023-02-14T12:48:06.270Z,57.96
2023-02-14T12:50:32.525Z,56.88
2023-02-14T12:52:58.795Z,55.26
2023-02-14T12:55:25.228Z,57.21
2023-02-14T12:57:51.517Z,58.27
2023-02-14T13:00:17.817Z,58.23
2023-02-14T13:02:44.156Z,59.12
2023-02-14T13:05:10.449Z,60.91
2023-02-14T13:07:36.710Z,62.20
2023-02-14T13:10:03.004Z,60.31
2023-02-14T13:12:29.293Z,57.83
2023-02-14T13:14:55.562Z,56.93
2023-02-14T13:17:21.935Z,51.50
2023-02-14T13:19:48.210Z,49.02
2023-02-14T13:22:14.576Z,48.31
2023-02-14T13:24:40.872Z,47.46
2023-02-14T13:27:07.173Z,48.20
2023-02-14T13:29:33.450Z,50.88
2023-02-14T13:31:59.732Z,52.17
2023-02-14T13:34:26.021Z,52.39
2023-02-14T13:36:52.314Z,52.78
2023-02-14T13:39:18.565Z,54.35
2023-02-14T13:41:44.854Z,53.72
2023-02-14T13:44:11.113Z,52.88
2023-02-14T13:46:37.425Z,53.01
2023-02-14T13:49:03.753Z,55.25
2023-02-14T13:51:30.345Z,57.22
2023-02-14T13:53:56.637Z,57.49
2023-02-14T13:56:22.892Z,56.52
2023-02-14T13:58:49.181Z,57.34
2023-02-14T14:01:15.491Z,56.59
2023-02-14T14:03:41.781Z,57.63
2023-02-14T14:06:08.074Z,56.61
2023-02-14T14:08:34.344Z,57.20
2023-02-14T14:11:00.648Z,55.74
2023-02-14T14:13:26.914Z,55.89
2023-02-14T14:15:53.206Z,55.77
2023-02-14T14:18:19.483Z,55.50
2023-02-14T14:20:45.733Z,53.97
2023-02-14T14:23:12.018Z,53.70
2023-02-14T14:25:38.333Z,53.32
2023-02-14T14:28:04.615Z,54.14
2023-02-14T14:30:30.942Z,51.97
2023-02-14T14:32:57.266Z,51.05
2023-02-14T14:35:23.535Z,49.77
2023-02-14T14:37:49.833Z,48.69
2023-02-14T14:40:16.157Z,46.92
2023-02-14T14:42:42.422Z,46.69
2023-02-14T14:45:08.706Z,46.71
2023-02-14T14:47:35.000Z,48.26
2023-02-14T14:50:01.311Z,48.70
2023-02-14T14:52:27.579Z,48.12
2023-02-14T14:54:53.849Z,51.27
2023-02-14T14:57:20.105Z,54.36
2023-02-14T14:59:46.364Z,51.80
2023-02-14T15:02:12.629Z,51.59
2023-02-14T15:04:38.916Z,50.22
2023-02-14T15:07:05.181Z,52.92
2023-02-14T15:09:31.464Z,45.47
2023-02-14T15:11:57.814Z,40.78
2023-02-14T15:14:24.064Z,40.08
2023-02-14T15:16:50.393Z,39.92
2023-02-14T15:19:16.696Z,42.29
2023-02-14T15:21:44.644Z,39.76
2023-02-14T15:24:11.070Z,42.79
2023-02-14T15:26:37.362Z,44.10
2023-02-14T15:29:03.635Z,44.52
2023-02-14T15:31:29.996Z,46.35
2023-02-14T15:33:56.318Z,46.54
2023-02-14T15:36:22.739Z,46.82
2023-02-14T15:38:49.003Z,48.29
2023-02-14T15:41:15.280Z,46.29
2023-02-14T15:43:41.524Z,47.96
2023-02-14T15:46:07.810Z,48.06
2023-02-14T15:48:34.094Z,49.02
2023-02-14T15:51:00.760Z,46.78
2023-02-14T15:53:27.201Z,49.40
2023-02-14T15:55:53.486Z,50.84
2023-02-14T15:58:19.772Z,49.60
2023-02-14T16:00:46.045Z,48.97
2023-02-14T16:03:12.301Z,46.50
2023-02-14T16:05:38.599Z,46.72
2023-02-14T16:08:04.909Z,46.78
2023-02-14T16:10:31.205Z,43.59
2023-02-14T16:12:57.811Z,43.89
2023-02-14T16:15:24.151Z,43.09
2023-02-14T16:17:50.418Z,44.73
2023-02-14T16:20:16.672Z,44.62
2023-02-14T16:22:42.930Z,45.29
2023-02-14T16:25:09.186Z,45.49
2023-02-14T16:27:35.459Z,46.51
2023-02-14T16:30:01.738Z,44.66
2023-02-14T16:32:28.151Z,45.50
2023-02-14T16:34:54.483Z,45.16
2023-02-14T16:37:20.757Z,44.56
2023-02-14T16:39:47.044Z,44.97
2023-02-14T16:42:13.325Z,44.64
2023-02-14T16:44:39.615Z,45.83
2023-02-14T16:47:05.910Z,46.55
2023-02-14T16:49:32.197Z,47.13
2023-02-14T16:51:58.475Z,46.24
2023-02-14T16:54:24.750Z,47.88
2023-02-14T16:56:51.054Z,50.28
2023-02-14T16:59:17.346Z,51.48
2023-02-14T17:01:43.688Z,51.03
2023-02-14T17:04:10.010Z,51.48
2023-02-14T17:06:36.508Z,53.57
2023-02-14T17:09:02.786Z,54.77
2023-02-14T17:11:29.072Z,56.38
2023-02-14T17:13:55.364Z,55.60
2023-02-14T17:16:21.683Z,53.58
2023-02-14T17:18:48.012Z,52.17
2023-02-14T17:21:14.296Z,51.37
2023-02-14T17:23:40.565Z,51.36
2023-02-14T17:26:06.846Z,51.87
2023-02-14T17:28:33.125Z,52.02
2023-02-14T17:31:00.800Z,53.13
2023-02-14T17:33:27.339Z,52.22
2023-02-14T17:35:53.682Z,47.69
2023-02-14T17:38:19.931Z,49.74
2023-02-14T17:40:46.199Z,49.97
2023-02-14T17:43:12.485Z,49.44
2023-02-14T17:45:38.737Z,50.88
2023-02-14T17:48:05.025Z,54.24
2023-02-14T17:50:31.293Z,54.09
2023-02-14T17:52:57.573Z,54.21
2023-02-14T17:55:23.847Z,54.33
2023-02-14T17:57:50.223Z,55.34
2023-02-14T18:00:16.477Z,55.54
2023-02-14T18:02:42.882Z,55.23
2023-02-14T18:05:09.159Z,56.09
2023-02-14T18:07:35.457Z,56.72
2023-02-14T18:10:01.834Z,56.13
2023-02-14T18:12:28.142Z,56.02
2023-02-14T18:14:54.397Z,57.88
2023-02-14T18:17:20.654Z,57.33
2023-02-14T18:19:46.928Z,58.39
2023-02-14T18:22:13.213Z,56.64
2023-02-14T18:24:39.478Z,55.22
2023-02-14T18:27:05.771Z,56.03
2023-02-14T18:29:32.031Z,57.74
2023-02-14T18:31:58.339Z,56.81
2023-02-14T18:34:24.711Z,55.80
2023-02-14T18:36:51.013Z,56.34
2023-02-14T18:39:17.288Z,56.83
2023-02-14T18:41:43.550Z,57.84
2023-02-14T18:44:09.820Z,58.50
2023-02-14T18:46:36.154Z,59.44
2023-02-14T18:49:02.445Z,60.79
2023-02-14T18:51:28.716Z,60.21
2023-02-14T18:53:54.988Z,59.36
2023-02-14T18:56:21.324Z,59.96
2023-02-14T18:58:47.634Z,61.34
2023-02-14T19:01:14.025Z,61.34
2023-02-14T19:03:40.326Z,61.11
2023-02-14T19:06:06.624Z,62.04
2023-02-14T19:08:32.891Z,61.38
2023-02-14T19:10:59.502Z,62.57
2023-02-14T19:13:25.922Z,63.16
2023-02-14T19:15:52.237Z,62.04
2023-02-14T19:18:18.522Z,61.80
2023-02-14T19:20:44.803Z,62.32
2023-02-14T19:23:11.056Z,61.80
2023-02-14T19:25:37.336Z,62.81
2023-02-14T19:28:03.620Z,62.55
2023-02-14T19:30:29.911Z,62.49
2023-02-14T19:32:56.267Z,62.35
2023-02-14T19:35:22.556Z,62.06
2023-02-14T19:37:48.950Z,61.98
2023-02-14T19:40:15.254Z,63.27
2023-02-14T19:42:41.519Z,64.37
2023-02-14T19:45:07.770Z,64.26
2023-02-14T19:50:06.079Z,66.92
2023-02-14T19:52:32.358Z,65.53
2023-02-14T19:54:58.614Z,64.63
2023-02-14T19:57:24.924Z,65.00
2023-02-14T19:59:51.180Z,65.05
2023-02-14T20:02:17.491Z,65.85
2023-02-14T20:04:43.806Z,64.58
2023-02-14T20:07:10.107Z,64.79
2023-02-14T20:09:36.385Z,63.87
2023-02-14T20:12:02.653Z,63.57
2023-02-14T20:14:28.938Z,61.83
2023-02-14T20:16:55.275Z,61.85
2023-02-14T20:19:21.581Z,62.62
2023-02-14T20:21:48.020Z,61.88
2023-02-14T20:24:14.278Z,61.98
2023-02-14T20:26:40.530Z,60.79
2023-02-14T20:29:06.872Z,61.50
2023-02-14T20:31:33.336Z,62.54
2023-02-14T20:33:59.653Z,62.37
2023-02-14T20:36:25.936Z,65.61
2023-02-14T20:38:52.201Z,62.08
2023-02-14T20:41:18.495Z,62.47
2023-02-14T20:43:44.841Z,63.95
2023-02-14T20:46:11.174Z,63.34
2023-02-14T20:48:37.549Z,64.09
2023-02-14T20:51:03.841Z,63.50
2023-02-14T20:53:30.374Z,64.02
2023-02-14T20:55:56.633Z,64.30
2023-02-14T20:58:22.932Z,63.07
2023-02-14T21:00:49.211Z,63.95
2023-02-14T21:03:15.578Z,62.64
2023-02-14T21:05:41.848Z,61.66
2023-02-14T21:08:08.098Z,61.58
2023-02-14T21:10:34.352Z,60.23
2023-02-14T21:13:00.627Z,61.54
2023-02-14T21:15:26.943Z,60.74
2023-02-14T21:17:53.219Z,60.86
2023-02-14T21:20:19.472Z,62.12
2023-02-14T21:22:45.744Z,60.62
2023-02-14T21:25:12.102Z,59.57
2023-02-14T21:27:38.355Z,58.81
2023-02-14T21:30:04.651Z,60.27
2023-02-14T21:32:30.948Z,60.96
2023-02-14T21:34:57.228Z,61.35
2023-02-14T21:37:23.493Z,62.42
2023-02-14T21:39:49.770Z,64.80
2023-02-14T21:42:16.018Z,66.27
2023-02-14T21:44:42.287Z,64.24
2023-02-14T21:47:08.552Z,63.15
2023-02-14T21:49:34.829Z,61.70
2023-02-14T21:52:01.087Z,59.45
2023-02-14T21:54:27.354Z,60.69
2023-02-14T21:56:53.621Z,58.14
2023-02-14T21:59:19.898Z,58.01
2023-02-14T22:01:46.199Z,57.10
2023-02-14T22:04:12.572Z,58.60
2023-02-14T22:06:38.938Z,56.87
2023-02-14T22:09:05.224Z,58.01
2023-02-14T22:11:31.498Z,57.63
2023-02-14T22:13:57.790Z,56.88
2023-02-14T22:16:24.064Z,56.17
2023-02-14T22:18:50.371Z,57.04
2023-02-14T22:21:16.647Z,56.44
2023-02-14T22:23:43.036Z,55.99
2023-02-14T22:26:09.294Z,56.18
2023-02-14T22:28:35.584Z,56.05
2023-02-14T22:31:02.239Z,57.87
2023-02-14T22:33:28.787Z,57.68
2023-02-14T22:35:55.049Z,58.41
2023-02-14T22:38:21.367Z,57.00
2023-02-14T22:40:47.645Z,59.55
2023-02-14T22:43:13.899Z,58.60
2023-02-14T22:45:40.171Z,58.47
2023-02-14T22:48:06.435Z,56.57
2023-02-14T22:50:32.791Z,56.83
2023-02-14T22:52:59.078Z,56.43
2023-02-14T22:55:25.336Z,57.37
2023-02-14T22:57:51.633Z,57.53
2023-02-14T23:00:17.900Z,57.34
2023-02-14T23:02:44.208Z,56.76
2023-02-14T23:05:10.519Z,57.05
2023-02-14T23:07:36.817Z,56.45
2023-02-14T23:10:03.112Z,56.29
2023-02-14T23:12:29.426Z,55.54
2023-02-14T23:14:55.688Z,55.89
2023-02-14T23:17:21.982Z,56.34
2023-02-14T23:19:48.264Z,53.90
2023-02-14T23:22:14.550Z,53.23
2023-02-14T23:24:40.824Z,52.61
2023-02-14T23:27:07.073Z,53.47
2023-02-14T23:29:33.342Z,53.95
2023-02-14T23:31:59.650Z,53.91
2023-02-14T23:34:25.988Z,53.12
2023-02-14T23:36:52.234Z,53.84
2023-02-14T23:39:18.501Z,52.66
2023-02-14T23:41:44.777Z,51.59
2023-02-14T23:44:11.032Z,50.31
2023-02-14T23:46:37.297Z,55.62
2023-02-14T23:49:03.555Z,56.37
2023-02-14T23:51:29.810Z,55.07
2023-02-14T23:53:56.087Z,54.54
2023-02-14T23:56:22.379Z,54.36
2023-02-14T23:58:48.644Z,54.44
